Time;durP1;ratioP1;P1;durP2;ratioP2;P2;SDS_P1;SDS_P2;PMS_P1;PMS_P2;Temp;Humidity;BMP_temperature;BMP_pressure;BME280_temperature;BME280_humidity;BME280_pressure;Samples;Min_cycle;Max_cycle;Signal;HPM_P1;HPM_P2
2021/08/05 00:01:05;;;;;;;11.15;5.30;;;23.30;65.80;;;;;;5033831;28;20033;-69
2021/08/05 00:03:31;;;;;;;11.20;5.40;;;23.40;65.80;;;;;;5034372;28;20083;-70
2021/08/05 00:05:56;;;;;;;8.35;5.35;;;23.40;65.80;;;;;;5033945;28;20053;-69
2021/08/05 00:08:22;;;;;;;12.00;5.40;;;23.40;65.60;;;;;;5033748;28;20026;-69
2021/08/05 00:10:47;;;;;;;12.95;7.03;;;23.40;65.60;;;;;;5033743;28;20064;-69
2021/08/05 00:13:13;;;;;;;10.70;5.50;;;23.40;65.40;;;;;;5033847;28;20021;-69
2021/08/05 00:15:39;;;;;;;13.90;5.60;;;23.40;65.00;;;;;;5033986;28;20021;-69
2021/08/05 00:18:05;;;;;;;10.93;5.82;;;23.40;65.00;;;;;;5033868;28;20025;-70
2021/08/05 00:20:30;;;;;;;8.75;5.22;;;23.40;65.00;;;;;;5032195;28;20025;-69
2021/08/05 00:22:56;;;;;;;8.10;4.93;;;23.50;64.90;;;;;;5033765;28;20029;-69
2021/08/05 00:25:22;;;;;;;7.97;4.60;;;23.40;64.80;;;;;;5033686;28;20026;-69
2021/08/05 00:27:47;;;;;;;6.47;4.07;;;23.40;64.60;;;;;;5032593;28;20021;-69
2021/08/05 00:30:13;;;;;;;6.50;4.28;;;23.50;64.60;;;;;;5033648;28;20030;-69
2021/08/05 00:32:39;;;;;;;8.88;4.05;;;23.40;64.40;;;;;;5032261;28;20076;-69
2021/08/05 00:35:06;;;;;;;6.70;3.88;;;23.40;64.10;;;;;;5033402;28;20067;-69
2021/08/05 00:37:31;;;;;;;7.05;4.13;;;23.50;63.80;;;;;;5033732;28;20094;-69
2021/08/05 00:39:58;;;;;;;8.20;4.40;;;23.40;63.60;;;;;;5033298;28;20451;-69
2021/08/05 00:42:23;;;;;;;7.90;4.28;;;23.40;63.30;;;;;;5033654;28;20026;-69
2021/08/05 00:44:49;;;;;;;6.50;3.88;;;23.40;63.20;;;;;;5033691;28;20029;-69
2021/08/05 00:47:15;;;;;;;6.10;3.85;;;23.40;62.90;;;;;;5033495;28;20104;-70
2021/08/05 00:49:41;;;;;;;6.45;4.03;;;23.40;62.90;;;;;;5033311;28;20033;-70
2021/08/05 00:52:08;;;;;;;6.72;4.30;;;23.40;62.90;;;;;;5033631;28;20025;-69
2021/08/05 00:54:34;;;;;;;6.07;4.13;;;23.30;62.90;;;;;;5032524;28;20025;-70
2021/08/05 00:57:00;;;;;;;7.20;4.22;;;23.30;63.00;;;;;;5033689;28;20026;-69
2021/08/05 00:59:25;;;;;;;6.60;4.10;;;23.20;63.10;;;;;;5032014;28;20017;-69
2021/08/05 01:02:02;;;;;;;7.32;4.70;;;23.10;63.30;;;;;;5033247;28;20062;-69
2021/08/05 01:04:30;;;;;;;6.28;4.50;;;23.00;63.60;;;;;;5032771;28;20550;-69
2021/08/05 01:07:16;;;;;;;6.38;4.35;;;23.00;63.80;;;;;;5035770;28;20053;-69
2021/08/05 01:10:00;;;;;;;7.10;4.63;;;22.90;63.80;;;;;;5037626;28;20022;-69
2021/08/05 01:12:44;;;;;;;5.82;4.50;;;22.80;64.20;;;;;;5037179;28;20453;-70
2021/08/05 01:15:10;;;;;;;8.57;4.18;;;22.70;64.40;;;;;;5037200;28;20055;-69
2021/08/05 01:17:39;;;;;;;6.45;4.50;;;22.70;64.70;;;;;;5036950;28;20104;-69
2021/08/05 01:20:09;;;;;;;7.38;4.45;;;22.60;64.90;;;;;;5036809;28;20033;-69
2021/08/05 01:22:53;;;;;;;6.65;4.50;;;22.50;65.10;;;;;;5035564;28;20396;-70
2021/08/05 01:25:46;;;;;;;8.23;5.05;;;22.50;65.30;;;;;;5037189;28;20095;-69
2021/08/05 01:28:12;;;;;;;7.32;4.60;;;22.40;65.50;;;;;;5031247;28;20060;-69
2021/08/05 01:30:42;;;;;;;7.03;4.43;;;22.40;65.80;;;;;;5036964;28;20029;-69
2021/08/05 01:33:08;;;;;;;7.68;4.60;;;22.30;66.30;;;;;;5035467;28;20142;-69
2021/08/05 01:35:35;;;;;;;6.72;4.78;;;22.30;66.90;;;;;;5036085;28;20036;-69
2021/08/05 01:38:02;;;;;;;8.75;4.25;;;22.20;67.10;;;;;;5036498;28;20104;-69
2021/08/05 01:40:29;;;;;;;8.85;4.60;;;22.20;67.30;;;;;;5035682;28;20029;-69
2021/08/05 01:42:57;;;;;;;8.25;4.97;;;22.20;67.60;;;;;;5035371;28;20128;-70
2021/08/05 01:45:23;;;;;;;8.10;4.80;;;22.10;68.10;;;;;;5036539;28;20029;-69
2021/08/05 01:47:50;;;;;;;7.47;4.95;;;22.10;68.50;;;;;;5036537;28;20100;-70
2021/08/05 01:50:17;;;;;;;10.98;5.05;;;22.00;68.50;;;;;;5035249;28;20036;-70
2021/08/05 01:52:44;;;;;;;6.78;4.78;;;22.00;68.80;;;;;;5035267;28;20017;-70
2021/08/05 01:55:12;;;;;;;8.15;4.97;;;21.90;69.00;;;;;;5035064;28;20025;-70
2021/08/05 01:57:37;;;;;;;12.13;5.05;;;21.90;69.20;;;;;;5036031;28;20451;-70
2021/08/05 02:00:08;;;;;;;10.20;5.40;;;21.80;69.30;;;;;;5034805;28;20029;-70
2021/08/05 02:02:35;;;;;;;8.20;5.43;;;21.80;69.60;;;;;;5034780;28;20482;-69
2021/08/05 02:05:05;;;;;;;9.55;5.22;;;21.70;69.40;;;;;;5035412;28;20080;-70
2021/08/05 02:07:37;;;;;;;8.85;5.10;;;21.70;69.70;;;;;;5034645;28;20037;-70
2021/08/05 02:10:12;;;;;;;8.38;5.20;;;21.70;70.10;;;;;;5034860;28;20029;-69
2021/08/05 02:12:46;;;;;;;8.73;5.78;;;21.60;70.00;;;;;;5034839;28;20029;-70
2021/08/05 02:15:11;;;;;;;7.95;5.50;;;21.60;70.50;;;;;;5036112;28;20021;-69
2021/08/05 02:17:41;;;;;;;7.18;5.70;;;21.50;70.50;;;;;;5035147;28;20394;-69
2021/08/05 02:20:09;;;;;;;9.65;5.30;;;21.50;70.70;;;;;;5034619;28;20087;-69
2021/08/05 02:22:38;;;;;;;11.38;5.85;;;21.50;70.80;;;;;;5035818;28;20017;-69
2021/08/05 02:25:04;;;;;;;8.93;5.78;;;21.50;70.70;;;;;;5035909;28;20032;-69
2021/08/05 02:27:30;;;;;;;10.52;7.05;;;21.40;70.90;;;;;;5035867;28;20025;-69
2021/08/05 02:29:57;;;;;;;11.10;6.78;;;21.40;71.00;;;;;;5035710;28;20483;-69
2021/08/05 02:32:23;;;;;;;14.18;7.43;;;21.40;71.10;;;;;;5034249;28;20147;-69
2021/08/05 02:34:50;;;;;;;14.05;8.20;;;21.40;71.30;;;;;;5034363;28;20060;-69
2021/08/05 02:37:16;;;;;;;18.23;8.40;;;21.50;71.90;;;;;;5034316;28;20029;-69
2021/08/05 02:39:42;;;;;;;14.13;8.77;;;21.50;71.20;;;;;;5034261;28;20017;-69
2021/08/05 02:42:09;;;;;;;16.85;8.48;;;21.50;71.10;;;;;;5033989;28;20030;-69
2021/08/05 02:44:35;;;;;;;15.20;9.63;;;21.50;71.00;;;;;;5034171;28;20466;-68
2021/08/05 02:47:02;;;;;;;17.20;10.50;;;21.50;71.00;;;;;;5034840;28;20053;-74
2021/08/05 02:49:30;;;;;;;17.85;10.52;;;21.50;71.10;;;;;;5041538;28;20033;-68
2021/08/05 02:51:57;;;;;;;17.92;9.93;;;21.60;71.10;;;;;;5034404;28;20026;-68
2021/08/05 02:54:23;;;;;;;18.63;10.60;;;21.60;71.30;;;;;;5033673;28;20033;-68
2021/08/05 02:56:49;;;;;;;19.55;10.60;;;21.60;71.50;;;;;;5033273;28;20021;-68
2021/08/05 02:59:15;;;;;;;20.63;10.13;;;21.60;71.80;;;;;;5033566;28;20108;-70
2021/08/05 03:01:42;;;;;;;22.25;11.55;;;21.60;72.00;;;;;;5033080;28;20133;-68
2021/08/05 03:04:10;;;;;;;17.58;9.50;;;21.60;72.40;;;;;;5033807;28;20025;-68
2021/08/05 03:06:36;;;;;;;15.95;9.95;;;21.50;72.60;;;;;;5033562;28;20049;-68
2021/08/05 03:09:02;;;;;;;19.73;10.20;;;21.60;73.10;;;;;;5033389;28;20112;-68
2021/08/05 03:11:28;;;;;;;14.27;9.60;;;21.60;73.40;;;;;;5033707;28;20434;-68
2021/08/05 03:13:54;;;;;;;16.50;9.65;;;21.70;73.40;;;;;;5033197;28;20479;-68
2021/08/05 03:16:20;;;;;;;16.17;9.73;;;21.80;73.40;;;;;;5035001;28;20025;-68
2021/08/05 03:18:45;;;;;;;19.85;10.18;;;21.90;73.40;;;;;;5034921;28;20017;-68
2021/08/05 03:21:11;;;;;;;14.77;9.95;;;22.00;73.20;;;;;;5034532;28;20128;-68
2021/08/05 03:23:37;;;;;;;13.27;9.65;;;21.90;73.10;;;;;;5032780;28;20079;-68
2021/08/05 03:26:05;;;;;;;12.50;9.60;;;21.90;73.30;;;;;;5034392;28;20337;-69
2021/08/05 03:28:30;;;;;;;13.57;8.95;;;21.80;73.50;;;;;;5013484;28;20026;-67
2021/08/05 03:30:56;;;;;;;14.75;9.85;;;21.70;73.80;;;;;;5014489;28;20091;-67
2021/08/05 03:33:22;;;;;;;14.07;9.50;;;21.60;74.20;;;;;;5026033;28;20029;-68
2021/08/05 03:35:48;;;;;;;14.70;8.95;;;21.60;74.90;;;;;;5032272;28;20060;-68
2021/08/05 03:38:14;;;;;;;12.65;9.38;;;21.60;74.90;;;;;;5032831;28;20517;-68
2021/08/05 03:40:39;;;;;;;11.07;8.20;;;21.60;74.80;;;;;;5034620;28;20036;-68
2021/08/05 03:43:05;;;;;;;11.35;8.75;;;21.60;74.70;;;;;;5033738;28;20026;-68
2021/08/05 03:45:31;;;;;;;13.82;8.27;;;21.50;75.00;;;;;;5034140;28;20082;-68
2021/08/05 03:47:57;;;;;;;12.73;8.57;;;21.40;75.50;;;;;;5033736;28;20061;-70
2021/08/05 03:50:22;;;;;;;13.35;9.07;;;21.30;75.90;;;;;;5032130;28;20028;-69
2021/08/05 03:52:48;;;;;;;11.70;8.38;;;21.20;76.40;;;;;;5033119;28;20025;-69
2021/08/05 03:55:14;;;;;;;15.32;8.80;;;21.20;76.70;;;;;;5033010;28;20024;-69
2021/08/05 03:57:46;;;;;;;10.27;8.57;;;21.10;77.20;;;;;;5032485;28;20471;-71
2021/08/05 04:00:14;;;;;;;10.52;8.32;;;21.10;77.50;;;;;;5032076;28;20530;-71
2021/08/05 04:02:40;;;;;;;12.15;9.40;;;21.10;77.70;;;;;;5013185;28;20021;-72
2021/08/05 04:05:06;;;;;;;9.88;7.90;;;21.10;77.90;;;;;;5014265;28;20041;-71
2021/08/05 04:07:32;;;;;;;13.80;8.35;;;21.20;77.80;;;;;;5014608;28;20053;-72
2021/08/05 04:09:58;;;;;;;10.93;8.68;;;21.30;77.70;;;;;;5012226;28;20042;-72
2021/08/05 04:12:24;;;;;;;11.23;8.38;;;21.40;77.60;;;;;;5031533;28;20400;-72
2021/08/05 04:14:49;;;;;;;12.38;8.30;;;21.50;77.60;;;;;;5031346;28;20024;-73
2021/08/05 04:17:15;;;;;;;11.63;8.43;;;21.70;77.40;;;;;;5032568;28;20162;-72
2021/08/05 04:19:41;;;;;;;13.40;8.73;;;21.90;76.80;;;;;;5032638;28;20017;-72
2021/08/05 04:22:06;;;;;;;12.30;8.48;;;22.10;76.30;;;;;;5032935;28;20021;-72
2021/08/05 04:24:32;;;;;;;11.73;8.48;;;22.40;76.20;;;;;;5033254;28;20028;-72
2021/08/05 04:26:57;;;;;;;13.20;8.48;;;22.70;76.00;;;;;;5032828;28;20029;-72
2021/08/05 04:29:23;;;;;;;13.88;8.10;;;23.20;75.10;;;;;;5032519;28;20029;-72
2021/08/05 04:31:49;;;;;;;13.88;8.45;;;23.50;73.50;;;;;;5033051;28;20029;-72
2021/08/05 04:34:15;;;;;;;12.30;8.05;;;23.60;72.60;;;;;;5033425;28;20026;-72
2021/08/05 04:36:40;;;;;;;12.15;8.73;;;23.60;72.00;;;;;;5064999;28;20068;-71
2021/08/05 04:39:06;;;;;;;11.40;8.35;;;23.60;71.50;;;;;;5032150;28;20460;-71
2021/08/05 04:41:33;;;;;;;11.52;7.47;;;23.60;71.80;;;;;;5034647;28;20033;-70
2021/08/05 04:43:59;;;;;;;11.82;8.68;;;23.80;71.50;;;;;;5037137;28;20029;-72
2021/08/05 04:46:25;;;;;;;15.65;8.40;;;23.90;71.00;;;;;;5036119;28;20029;-72
2021/08/05 04:48:50;;;;;;;12.60;8.75;;;24.10;70.70;;;;;;5037620;28;20026;-72
2021/08/05 04:51:16;;;;;;;14.32;8.52;;;24.30;70.30;;;;;;5037318;28;20026;-73
2021/08/05 04:53:42;;;;;;;14.50;8.48;;;24.60;69.50;;;;;;5054708;28;20056;-73
2021/08/05 04:56:08;;;;;;;13.05;7.78;;;24.90;69.10;;;;;;5056342;28;20028;-73
2021/08/05 04:58:33;;;;;;;12.45;8.48;;;25.10;67.60;;;;;;5050189;28;20486;-73
2021/08/05 05:00:59;;;;;;;11.40;8.38;;;25.10;66.90;;;;;;5039171;28;20477;-72
2021/08/05 05:03:25;;;;;;;11.70;7.93;;;25.30;67.30;;;;;;5036623;28;20025;-73
2021/08/05 05:05:50;;;;;;;13.35;8.60;;;25.70;67.30;;;;;;5051579;28;20044;-70
2021/08/05 05:08:24;;;;;;;11.75;8.05;;;26.20;66.70;;;;;;5035602;28;20040;-73
2021/08/05 05:10:56;;;;;;;10.00;8.18;;;26.90;65.50;;;;;;5027527;28;20030;-69
2021/08/05 05:13:21;;;;;;;12.98;8.02;;;27.20;62.70;;;;;;5033696;28;20021;-70
2021/08/05 05:15:48;;;;;;;12.15;8.65;;;27.10;62.10;;;;;;5035544;28;20313;-67
2021/08/05 05:18:16;;;;;;;16.25;9.20;;;27.00;62.50;;;;;;5038165;28;20030;-67
2021/08/05 05:20:42;;;;;;;14.05;9.07;;;26.80;62.50;;;;;;5035627;28;20138;-67
2021/08/05 05:23:08;;;;;;;13.00;9.15;;;26.80;62.80;;;;;;5035872;28;20025;-67
2021/08/05 05:25:35;;;;;;;12.55;8.25;;;27.00;63.30;;;;;;5035698;28;20029;-67
2021/08/05 05:28:00;;;;;;;13.15;8.60;;;27.30;62.70;;;;;;5036723;28;20025;-67
2021/08/05 05:30:26;;;;;;;13.45;8.70;;;27.60;62.20;;;;;;5035308;28;20117;-67
2021/08/05 05:32:52;;;;;;;11.73;8.60;;;28.10;61.50;;;;;;5035085;28;20116;-67
2021/08/05 05:35:19;;;;;;;12.77;9.48;;;28.40;60.50;;;;;;5035421;28;20026;-67
2021/08/05 05:37:47;;;;;;;13.80;8.25;;;28.60;60.20;;;;;;5035379;28;20022;-67
2021/08/05 05:40:14;;;;;;;12.52;8.48;;;28.80;60.00;;;;;;5029140;28;20089;-67
2021/08/05 05:42:40;;;;;;;10.90;8.57;;;29.00;59.40;;;;;;5028981;28;20056;-74
2021/08/05 05:45:07;;;;;;;12.35;9.25;;;29.00;58.90;;;;;;5034860;28;20052;-67
2021/08/05 05:47:33;;;;;;;13.43;8.88;;;29.00;58.60;;;;;;5041769;28;20021;-66
2021/08/05 05:49:59;;;;;;;12.90;8.70;;;28.90;58.50;;;;;;5043255;28;20520;-72
2021/08/05 05:52:25;;;;;;;12.07;8.82;;;28.90;58.60;;;;;;5045808;28;20025;-67
2021/08/05 05:54:51;;;;;;;15.90;9.30;;;28.70;58.50;;;;;;5035274;28;20059;-67
2021/08/05 05:57:17;;;;;;;11.15;8.68;;;28.50;59.10;;;;;;5028156;28;20084;-67
2021/08/05 05:59:42;;;;;;;11.43;9.13;;;28.30;59.20;;;;;;5067137;28;20021;-67
2021/08/05 06:02:09;;;;;;;13.18;9.23;;;28.20;59.50;;;;;;5031389;28;20044;-67
2021/08/05 06:04:34;;;;;;;11.55;8.95;;;27.90;59.80;;;;;;5031632;28;20022;-67
2021/08/05 06:07:00;;;;;;;13.80;9.40;;;27.60;60.30;;;;;;5035625;28;20485;-67
2021/08/05 06:09:26;;;;;;;12.98;9.18;;;27.40;61.00;;;;;;5034944;28;20018;-67
2021/08/05 06:11:51;;;;;;;15.50;8.93;;;27.30;61.50;;;;;;5030574;28;20391;-73
2021/08/05 06:14:17;;;;;;;15.15;9.10;;;27.30;61.80;;;;;;5033786;28;20053;-73
2021/08/05 06:16:43;;;;;;;10.95;9.05;;;27.40;62.10;;;;;;5031222;28;20025;-69
2021/08/05 06:19:09;;;;;;;11.90;9.10;;;27.60;62.40;;;;;;5032927;28;20024;-72
2021/08/05 06:21:35;;;;;;;12.45;8.88;;;27.80;62.10;;;;;;5036475;28;20033;-71
2021/08/05 06:24:01;;;;;;;13.77;9.10;;;28.00;61.40;;;;;;5034528;28;20470;-67
2021/08/05 06:26:27;;;;;;;13.18;10.05;;;28.20;60.70;;;;;;5030888;28;20072;-68
2021/08/05 06:28:53;;;;;;;18.15;13.68;;;28.30;60.50;;;;;;5018011;28;20092;-68
2021/08/05 06:31:20;;;;;;;20.45;12.90;;;28.70;60.80;;;;;;5012563;28;20036;-68
2021/08/05 06:33:50;;;;;;;20.20;11.30;;;29.20;60.10;;;;;;5012395;28;20543;-68
2021/08/05 06:36:17;;;;;;;16.65;11.80;;;29.60;59.60;;;;;;5013407;28;20345;-68
2021/08/05 06:38:43;;;;;;;16.42;10.60;;;29.80;58.10;;;;;;5013368;28;20053;-68
2021/08/05 06:41:08;;;;;;;16.58;11.73;;;29.80;57.50;;;;;;5013398;28;20038;-68
2021/08/05 06:43:34;;;;;;;18.25;11.48;;;30.10;57.70;;;;;;5011996;28;20026;-68
2021/08/05 06:45:59;;;;;;;18.15;11.82;;;30.50;57.30;;;;;;5012329;28;20041;-68
2021/08/05 06:48:25;;;;;;;13.52;8.82;;;30.80;56.80;;;;;;5014025;28;20033;-68
2021/08/05 06:50:51;;;;;;;11.77;9.65;;;31.50;56.00;;;;;;5015585;28;20026;-68
2021/08/05 06:53:16;;;;;;;14.55;9.88;;;31.70;54.10;;;;;;5014414;28;20017;-68
2021/08/05 06:55:42;;;;;;;12.52;9.57;;;32.00;54.20;;;;;;5014321;28;20022;-68
2021/08/05 06:58:08;;;;;;;15.13;10.05;;;32.60;53.60;;;;;;5013753;28;20475;-68
2021/08/05 07:00:33;;;;;;;17.17;10.68;;;33.10;53.00;;;;;;5013940;28;20026;-68
2021/08/05 07:02:59;;;;;;;13.05;9.63;;;33.30;52.40;;;;;;5013566;28;20022;-68
2021/08/05 07:05:25;;;;;;;12.57;9.38;;;33.40;51.30;;;;;;5013770;28;20030;-68
2021/08/05 07:07:54;;;;;;;13.23;8.10;;;33.60;51.30;;;;;;5015165;28;20112;-68
2021/08/05 07:10:20;;;;;;;10.70;8.18;;;34.00;50.90;;;;;;5013746;28;20464;-68
2021/08/05 07:12:46;;;;;;;11.27;7.97;;;34.20;50.10;;;;;;5013459;28;20098;-69
2021/08/05 07:15:12;;;;;;;10.52;7.70;;;34.30;50.40;;;;;;5014780;28;20090;-69
2021/08/05 07:17:40;;;;;;;8.82;5.70;;;34.60;49.70;;;;;;5014947;28;20057;-69
2021/08/05 07:20:07;;;;;;;8.30;5.72;;;34.90;48.70;;;;;;5014605;28;20478;-70
2021/08/05 07:22:33;;;;;;;9.05;6.10;;;35.10;46.50;;;;;;5013438;28;20530;-69
2021/08/05 07:24:58;;;;;;;9.05;6.35;;;34.90;46.70;;;;;;5013532;28;20029;-69
2021/08/05 07:27:24;;;;;;;8.02;7.00;;;34.70;47.00;;;;;;5014516;28;20080;-70
2021/08/05 07:29:50;;;;;;;9.63;7.13;;;34.80;47.30;;;;;;5014138;28;20468;-70
2021/08/05 07:32:15;;;;;;;8.93;6.97;;;34.80;48.00;;;;;;5014733;28;20045;-69
2021/08/05 07:34:41;;;;;;;11.68;5.63;;;34.90;47.70;;;;;;5014432;28;20056;-69
2021/08/05 07:37:07;;;;;;;11.27;5.95;;;34.70;47.50;;;;;;5013306;28;20018;-69
2021/08/05 07:39:33;;;;;;;9.00;5.63;;;34.30;46.60;;;;;;5013384;28;20467;-69
2021/08/05 07:41:59;;;;;;;10.05;5.60;;;34.00;47.20;;;;;;5014454;28;20034;-69
2021/08/05 07:44:24;;;;;;;8.73;6.13;;;33.80;47.60;;;;;;5014964;28;20018;-69
2021/08/05 07:46:50;;;;;;;9.63;4.78;;;33.70;48.20;;;;;;5012897;28;20026;-69
2021/08/05 07:49:17;;;;;;;10.48;5.32;;;33.70;48.10;;;;;;5013364;28;20026;-70
2021/08/05 07:51:43;;;;;;;6.38;4.63;;;33.80;48.40;;;;;;5013275;28;20041;-69
2021/08/05 07:54:09;;;;;;;6.30;4.50;;;34.00;48.00;;;;;;5014604;28;20025;-69
2021/08/05 07:56:34;;;;;;;7.30;5.15;;;34.10;47.90;;;;;;5013042;28;20022;-69
2021/08/05 07:59:00;;;;;;;7.85;4.80;;;34.40;47.70;;;;;;5013444;28;20116;-69
2021/08/05 08:01:26;;;;;;;7.88;4.55;;;34.60;47.30;;;;;;5014266;28;20349;-69
2021/08/05 08:03:52;;;;;;;7.75;4.25;;;34.80;46.50;;;;;;5014145;28;20022;-70
2021/08/05 08:06:18;;;;;;;6.28;4.00;;;35.00;45.90;;;;;;5012781;28;20046;-68
2021/08/05 08:08:43;;;;;;;7.65;4.38;;;35.10;45.50;;;;;;5014176;28;20139;-69
2021/08/05 08:11:09;;;;;;;8.20;4.13;;;35.30;45.50;;;;;;5014106;28;20026;-69
2021/08/05 08:13:35;;;;;;;5.70;4.22;;;35.20;45.10;;;;;;5014138;28;20022;-69
2021/08/05 08:16:01;;;;;;;7.97;4.10;;;35.20;45.50;;;;;;5012169;28;20096;-70
2021/08/05 08:18:26;;;;;;;6.25;3.97;;;35.30;45.80;;;;;;5013904;28;20026;-70
2021/08/05 08:20:56;;;;;;;8.02;3.70;;;35.70;45.40;;;;;;5012815;28;20371;-69
2021/08/05 08:23:23;;;;;;;5.30;3.63;;;36.00;44.80;;;;;;5012572;28;20523;-69
2021/08/05 08:25:49;;;;;;;6.70;3.70;;;35.90;44.10;;;;;;5013177;28;20364;-69
2021/08/05 08:28:15;;;;;;;6.38;3.35;;;35.70;44.10;;;;;;5014291;28;20022;-69
2021/08/05 08:30:40;;;;;;;5.45;3.40;;;35.40;43.80;;;;;;5013848;28;20064;-69
2021/08/05 08:33:06;;;;;;;7.95;4.75;;;35.00;44.80;;;;;;5014208;28;20026;-69
2021/08/05 08:35:32;;;;;;;5.15;3.58;;;34.90;45.90;;;;;;5012688;28;20075;-69
2021/08/05 08:37:58;;;;;;;6.15;3.67;;;34.60;44.60;;;;;;5012407;28;20026;-69
2021/08/05 08:40:24;;;;;;;6.78;4.90;;;34.20;45.30;;;;;;5012180;28;20152;-69
2021/08/05 08:42:50;;;;;;;4.93;3.60;;;34.10;47.20;;;;;;5013166;28;20120;-69
2021/08/05 08:45:16;;;;;;;6.05;3.70;;;34.20;46.80;;;;;;5013832;28;20360;-69
2021/08/05 08:47:46;;;;;;;5.50;3.67;;;34.00;45.70;;;;;;5012427;28;20533;-69
2021/08/05 08:50:12;;;;;;;6.35;4.07;;;33.70;46.20;;;;;;5013711;28;20045;-69
2021/08/05 08:52:41;;;;;;;7.22;4.25;;;33.70;46.90;;;;;;5013816;28;20034;-68
2021/08/05 08:55:09;;;;;;;6.97;3.75;;;33.70;47.20;;;;;;5012193;28;20048;-69
2021/08/05 08:57:36;;;;;;;8.77;4.75;;;33.90;47.40;;;;;;5012401;28;20025;-69
2021/08/05 09:00:07;;;;;;;8.45;4.07;;;34.30;47.30;;;;;;5012501;28;20450;-69
2021/08/05 09:02:33;;;;;;;6.90;3.83;;;34.50;46.30;;;;;;5012606;28;20036;-69
2021/08/05 09:04:59;;;;;;;7.95;3.40;;;34.50;46.30;;;;;;5013559;28;20092;-69
2021/08/05 09:07:25;;;;;;;5.07;3.67;;;34.80;46.60;;;;;;5011801;28;20046;-69
2021/08/05 09:09:51;;;;;;;5.15;3.38;;;35.00;46.00;;;;;;5013395;28;20022;-69
2021/08/05 09:12:17;;;;;;;4.70;3.00;;;35.10;45.00;;;;;;5012291;28;20472;-68
2021/08/05 09:14:52;;;;;;;6.35;2.80;;;35.00;44.30;;;;;;5013455;28;20453;-69
2021/08/05 09:17:33;;;;;;;4.03;2.90;;;35.20;44.60;;;;;;5013708;28;20022;-70
2021/08/05 09:20:08;;;;;;;4.97;2.80;;;35.40;43.40;;;;;;5012144;28;20083;-69
2021/08/05 09:22:44;;;;;;;5.70;2.80;;;35.50;42.80;;;;;;5013851;28;20084;-69
2021/08/05 09:25:33;;;;;;;5.03;2.60;;;35.50;42.50;;;;;;5012213;28;20048;-69
2021/08/05 09:28:11;;;;;;;6.45;2.80;;;35.80;42.40;;;;;;5015647;28;20025;-68
2021/08/05 09:30:39;;;;;;;6.07;2.83;;;36.00;42.00;;;;;;5016112;28;20451;-69
2021/08/05 09:33:09;;;;;;;4.85;2.67;;;36.10;42.20;;;;;;5017278;28;20376;-69
2021/08/05 09:35:36;;;;;;;4.43;2.97;;;36.30;42.20;;;;;;5017033;28;20511;-69
2021/08/05 09:38:26;;;;;;;7.57;3.17;;;36.30;42.60;;;;;;5015645;28;20018;-69
2021/08/05 09:41:04;;;;;;;5.85;3.17;;;36.30;42.50;;;;;;5015497;28;20033;-69
2021/08/05 09:43:30;;;;;;;5.80;3.28;;;36.30;43.00;;;;;;5016541;28;20018;-68
2021/08/05 09:45:56;;;;;;;6.75;4.30;;;36.30;42.80;;;;;;5015392;28;20057;-69
2021/08/05 09:48:39;;;;;;;5.05;3.40;;;36.30;43.60;;;;;;5015034;28;20029;-69
2021/08/05 09:51:09;;;;;;;5.53;3.20;;;36.10;42.70;;;;;;5016543;28;20026;-68
2021/08/05 09:53:55;;;;;;;6.43;3.38;;;35.50;43.60;;;;;;5015438;28;20022;-68
2021/08/05 09:56:21;;;;;;;6.00;3.10;;;35.10;44.00;;;;;;5016778;28;20120;-68
2021/08/05 09:58:48;;;;;;;5.75;2.90;;;34.90;44.10;;;;;;5016448;28;20018;-69
2021/08/05 10:01:14;;;;;;;8.10;3.15;;;35.00;43.10;;;;;;5016237;28;20057;-69
2021/08/05 10:03:40;;;;;;;4.68;2.88;;;35.10;43.40;;;;;;5015207;28;20464;-69
2021/08/05 10:06:07;;;;;;;7.70;3.40;;;35.20;43.70;;;;;;5016299;28;20115;-69
2021/08/05 10:08:40;;;;;;;5.93;2.85;;;35.60;43.90;;;;;;5014940;28;20021;-68
2021/08/05 10:11:08;;;;;;;4.57;2.72;;;35.70;42.00;;;;;;5016429;28;20021;-69
2021/08/05 10:13:39;;;;;;;4.85;3.20;;;35.80;42.50;;;;;;5014988;28;20460;-68
2021/08/05 10:16:10;;;;;;;5.75;3.15;;;35.50;42.50;;;;;;5016072;28;20588;-68
2021/08/05 10:18:38;;;;;;;5.03;3.20;;;35.70;42.90;;;;;;5016169;28;20057;-68
2021/08/05 10:21:09;;;;;;;5.45;3.53;;;35.80;41.90;;;;;;5014790;28;20528;-68
2021/08/05 10:23:40;;;;;;;6.07;3.40;;;35.80;41.80;;;;;;5016205;28;20026;-69
2021/08/05 10:26:08;;;;;;;7.93;3.70;;;35.60;41.70;;;;;;5016046;28;20022;-68
2021/08/05 10:28:37;;;;;;;6.53;3.35;;;35.50;42.30;;;;;;5014520;28;20017;-68
2021/08/05 10:31:07;;;;;;;6.55;3.38;;;35.50;42.70;;;;;;5014542;28;20072;-68
2021/08/05 10:33:33;;;;;;;5.60;3.65;;;35.60;42.70;;;;;;5016155;28;20033;-69
2021/08/05 10:36:01;;;;;;;5.80;3.95;;;35.60;42.60;;;;;;5015968;28;20352;-69
2021/08/05 10:38:28;;;;;;;6.85;3.63;;;35.60;42.80;;;;;;5013892;28;20029;-69
2021/08/05 10:40:54;;;;;;;7.75;3.80;;;35.80;42.80;;;;;;5014322;28;20041;-69
2021/08/05 10:43:20;;;;;;;7.47;3.28;;;36.00;42.40;;;;;;5014493;28;20026;-69
2021/08/05 10:45:46;;;;;;;8.60;3.40;;;36.00;42.00;;;;;;5014482;28;20026;-68
2021/08/05 10:48:12;;;;;;;4.50;3.03;;;35.90;42.50;;;;;;5014374;28;20018;-69
2021/08/05 10:50:44;;;;;;;6.43;3.15;;;35.80;42.00;;;;;;5014085;28;20040;-69
2021/08/05 10:53:35;;;;;;;8.15;3.33;;;36.00;41.80;;;;;;5014271;28;20022;-69
2021/08/05 10:56:18;;;;;;;5.40;3.58;;;36.00;41.10;;;;;;5014026;28;20022;-69
2021/08/05 10:59:16;;;;;;;5.25;3.80;;;36.00;41.20;;;;;;5014097;28;20028;-68
2021/08/05 11:01:53;;;;;;;7.35;4.40;;;35.50;41.60;;;;;;5003323;28;20045;-68
2021/08/05 11:04:40;;;;;;;5.28;3.63;;;35.10;43.20;;;;;;5015286;28;20538;-68
2021/08/05 11:07:25;;;;;;;5.85;4.03;;;35.00;43.60;;;;;;5013693;28;20101;-68
2021/08/05 11:09:51;;;;;;;;;;;35.20;43.90;;;;;;5014343;28;20381;-69
2021/08/05 11:12:48;;;;;;;11.52;4.95;;;35.40;43.80;;;;;;5013862;28;19901;-69
2021/08/05 11:15:25;;;;;;;9.05;4.90;;;35.40;43.60;;;;;;5009370;28;20030;-69
2021/08/05 11:18:28;;;;;;;6.93;5.20;;;35.30;44.30;;;;;;5014074;28;20017;-68
2021/08/05 11:20:56;;;;;;;8.85;5.32;;;35.20;45.10;;;;;;5015009;28;20164;-68
2021/08/05 11:23:25;;;;;;;9.13;5.35;;;35.10;45.70;;;;;;5014862;28;20026;-68
2021/08/05 11:25:53;;;;;;;8.75;5.40;;;35.20;45.90;;;;;;5015252;28;20029;-68
2021/08/05 11:28:22;;;;;;;9.60;5.65;;;34.90;45.60;;;;;;5014925;28;20081;-68
2021/08/05 11:30:50;;;;;;;10.05;5.30;;;34.20;46.30;;;;;;5014683;28;20021;-69
2021/08/05 11:33:37;;;;;;;9.77;5.68;;;33.70;47.00;;;;;;5014757;28;20022;-69
2021/08/05 11:39:02;;;;;;;11.15;6.18;;;32.80;49.40;;;;;;5014644;28;20395;-68
2021/08/05 11:41:44;;;;;;;11.25;6.40;;;32.80;50.00;;;;;;5014670;28;20034;-69
2021/08/05 11:44:20;;;;;;;11.88;7.18;;;32.70;49.90;;;;;;5015053;28;20044;-68
2021/08/05 11:46:49;;;;;;;8.90;6.13;;;32.70;50.60;;;;;;5014936;28;20083;-68
2021/08/05 11:49:34;;;;;;;9.80;4.68;;;32.80;50.80;;;;;;5014308;28;20018;-68
2021/08/05 11:52:15;;;;;;;8.20;4.50;;;32.70;49.10;;;;;;5013034;28;20464;-68
2021/08/05 11:55:00;;;;;;;7.28;4.85;;;32.50;48.60;;;;;;5013808;28;20525;-68
2021/08/05 11:57:27;;;;;;;6.50;4.00;;;32.30;48.80;;;;;;5013458;28;20464;-68
2021/08/05 11:59:55;;;;;;;7.57;4.30;;;32.10;49.10;;;;;;5013294;28;20113;-68
2021/08/05 12:02:26;;;;;;;7.35;3.95;;;31.90;49.20;;;;;;5014274;28;20021;-68
2021/08/05 12:04:56;;;;;;;5.65;3.78;;;31.90;48.80;;;;;;5014329;28;20041;-68
2021/08/05 12:07:36;;;;;;;7.47;4.40;;;31.80;49.00;;;;;;5012983;28;20054;-68
2021/08/05 12:10:05;;;;;;;6.25;3.95;;;31.70;49.20;;;;;;5014492;28;20029;-68
2021/08/05 12:12:57;;;;;;;6.95;3.85;;;31.50;49.80;;;;;;5014332;28;20049;-68
2021/08/05 12:15:52;;;;;;;6.47;4.50;;;31.40;50.00;;;;;;5013506;28;20026;-68
2021/08/05 12:18:20;;;;;;;;;;;31.10;50.30;;;;;;5012639;28;20044;-68
2021/08/05 12:20:48;;;;;;;8.40;5.70;;;31.10;50.50;;;;;;5013777;28;19909;-68
2021/08/05 12:23:36;;;;;;;8.00;4.82;;;31.10;51.50;;;;;;5013657;28;20200;-68
2021/08/05 12:26:19;;;;;;;6.57;4.80;;;31.10;51.60;;;;;;5013303;28;20052;-68
2021/08/05 12:28:46;;;;;;;6.78;4.88;;;31.00;51.50;;;;;;5013968;28;20056;-68
2021/08/05 12:31:21;;;;;;;9.90;5.40;;;30.90;52.20;;;;;;5012690;28;20057;-68
2021/08/05 12:33:49;;;;;;;8.90;5.45;;;30.90;52.60;;;;;;5013948;28;20022;-68
2021/08/05 12:36:23;;;;;;;10.43;5.80;;;31.00;53.00;;;;;;5014395;28;20459;-68
2021/08/05 12:39:08;;;;;;;8.82;5.18;;;31.10;53.80;;;;;;5013962;28;20056;-68
2021/08/05 12:41:52;;;;;;;7.50;5.07;;;31.00;53.60;;;;;;5012794;28;20345;-68
2021/08/05 12:44:25;;;;;;;7.78;5.28;;;31.00;53.80;;;;;;5012436;28;20395;-68
2021/08/05 12:46:54;;;;;;;8.48;5.10;;;31.10;54.00;;;;;;5013562;28;20018;-68
2021/08/05 12:49:28;;;;;;;7.75;5.30;;;31.20;54.10;;;;;;5013744;28;20021;-69
2021/08/05 12:51:59;;;;;;;7.75;5.03;;;31.10;54.20;;;;;;5012655;28;20188;-68
2021/08/05 12:54:26;;;;;;;7.85;5.00;;;31.00;54.10;;;;;;5013645;28;20030;-68